sensor_id;sensor_type;location;lat;lon;timestamp;pressure;altitude;pressure_sealevel;temperature;humidity
596;BME280;19946;49.306;11.350;2023-10-31T00:00:53;94694.13;;;10.51;100.00
596;BME280;19946;49.306;11.350;2023-10-31T00:03:54;94680.28;;;10.44;100.00
596;BME280;19946;49.306;11.350;2023-10-31T00:06:54;94683.34;;;10.47;100.00
596;BME280;19946;49.306;11.350;2023-10-31T00:09:54;94699.44;;;10.57;100.00
596;BME280;19946;49.306;11.350;2023-10-31T00:12:55;94667.28;;;10.29;100.00
596;BME280;19946;49.306;11.350;2023-10-31T00:15:55;94657.63;;;10.23;100.00
596;BME280;19946;49.306;11.350;2023-10-31T00:18:55;94700.66;;;10.47;100.00
596;BME280;19946;49.306;11.350;2023-10-31T00:21:56;94664.06;;;10.27;100.00
596;BME280;19946;49.306;11.350;2023-10-31T00:24:56;94656.34;;;10.19;100.00
596;BME280;19946;49.306;11.350;2023-10-31T00:27:56;94690.06;;;10.34;100.00
596;BME280;19946;49.306;11.350;2023-10-31T00:30:57;94696.69;;;10.28;100.00
596;BME280;19946;49.306;11.350;2023-10-31T00:33:57;94693.63;;;10.33;100.00
596;BME280;19946;49.306;11.350;2023-10-31T00:36:57;94699.13;;;10.30;100.00
596;BME280;19946;49.306;11.350;2023-10-31T00:39:58;94720.56;;;10.46;100.00
596;BME280;19946;49.306;11.350;2023-10-31T00:42:59;94710.59;;;10.35;100.00
596;BME280;19946;49.306;11.350;2023-10-31T00:46:03;94716.56;;;10.36;100.00
596;BME280;19946;49.306;11.350;2023-10-31T00:49:03;94728.81;;;10.42;100.00
596;BME280;19946;49.306;11.350;2023-10-31T00:52:04;94723.63;;;10.42;100.00
596;BME280;19946;49.306;11.350;2023-10-31T00:55:04;94732.25;;;10.34;100.00
596;BME280;19946;49.306;11.350;2023-10-31T00:58:05;94723.69;;;10.34;100.00
596;BME280;19946;49.306;11.350;2023-10-31T01:01:05;94735.94;;;10.40;100.00
596;BME280;19946;49.306;11.350;2023-10-31T01:04:05;94694.19;;;10.12;100.00
596;BME280;19946;49.306;11.350;2023-10-31T01:07:06;94707.09;;;10.20;100.00
596;BME280;19946;49.306;11.350;2023-10-31T01:10:06;94745.03;;;10.36;100.00
596;BME280;19946;49.306;11.350;2023-10-31T01:13:07;94740.34;;;10.31;100.00
596;BME280;19946;49.306;11.350;2023-10-31T01:16:08;94728.44;;;10.22;100.00
596;BME280;19946;49.306;11.350;2023-10-31T01:19:08;94708.63;;;9.98;100.00
596;BME280;19946;49.306;11.350;2023-10-31T01:22:08;94739.59;;;10.22;100.00
596;BME280;19946;49.306;11.350;2023-10-31T01:25:09;94757.66;;;10.31;100.00
596;BME280;19946;49.306;11.350;2023-10-31T01:28:09;94742.19;;;10.14;100.00
596;BME280;19946;49.306;11.350;2023-10-31T01:31:10;94746.50;;;10.30;100.00
596;BME280;19946;49.306;11.350;2023-10-31T01:34:10;94699.03;;;10.07;100.00
596;BME280;19946;49.306;11.350;2023-10-31T01:37:10;94711.53;;;10.03;100.00
596;BME280;19946;49.306;11.350;2023-10-31T01:40:14;94736.03;;;10.15;100.00
596;BME280;19946;49.306;11.350;2023-10-31T01:43:32;94748.00;;;10.16;100.00
596;BME280;19946;49.306;11.350;2023-10-31T01:46:32;94744.41;;;10.17;100.00
596;BME280;19946;49.306;11.350;2023-10-31T01:49:32;94719.28;;;10.03;100.00
596;BME280;19946;49.306;11.350;2023-10-31T01:52:33;94741.81;;;10.17;100.00
596;BME280;19946;49.306;11.350;2023-10-31T01:55:36;94748.16;;;10.15;100.00
596;BME280;19946;49.306;11.350;2023-10-31T01:58:37;94758.19;;;10.10;100.00
596;BME280;19946;49.306;11.350;2023-10-31T02:01:38;94768.38;;;10.19;100.00
596;BME280;19946;49.306;11.350;2023-10-31T02:04:40;94745.00;;;9.97;100.00
596;BME280;19946;49.306;11.350;2023-10-31T02:07:44;94755.44;;;10.11;100.00
596;BME280;19946;49.306;11.350;2023-10-31T02:10:45;94742.41;;;9.97;100.00
596;BME280;19946;49.306;11.350;2023-10-31T02:13:46;94755.94;;;10.07;100.00
596;BME280;19946;49.306;11.350;2023-10-31T02:16:46;94744.97;;;10.05;100.00
596;BME280;19946;49.306;11.350;2023-10-31T02:19:47;94751.13;;;10.04;100.00
596;BME280;19946;49.306;11.350;2023-10-31T02:22:47;94740.50;;;9.91;100.00
596;BME280;19946;49.306;11.350;2023-10-31T02:25:48;94753.25;;;9.92;100.00
596;BME280;19946;49.306;11.350;2023-10-31T02:28:48;94758.59;;;9.91;100.00
596;BME280;19946;49.306;11.350;2023-10-31T02:31:48;94770.03;;;9.96;100.00
596;BME280;19946;49.306;11.350;2023-10-31T02:34:49;94776.19;;;9.95;100.00
596;BME280;19946;49.306;11.350;2023-10-31T02:37:49;94738.16;;;9.65;100.00
596;BME280;19946;49.306;11.350;2023-10-31T02:40:50;94730.09;;;9.60;100.00
596;BME280;19946;49.306;11.350;2023-10-31T02:43:50;94798.50;;;9.88;100.00
596;BME280;19946;49.306;11.350;2023-10-31T02:46:50;94798.84;;;9.77;100.00
596;BME280;19946;49.306;11.350;2023-10-31T02:49:50;94816.78;;;9.78;100.00
596;BME280;19946;49.306;11.350;2023-10-31T02:52:51;94814.56;;;9.59;100.00
596;BME280;19946;49.306;11.350;2023-10-31T02:55:51;94835.22;;;9.43;100.00
596;BME280;19946;49.306;11.350;2023-10-31T02:58:51;94844.09;;;9.32;100.00
596;BME280;19946;49.306;11.350;2023-10-31T03:01:52;94804.38;;;9.01;100.00
596;BME280;19946;49.306;11.350;2023-10-31T03:04:53;94860.06;;;9.11;100.00
596;BME280;19946;49.306;11.350;2023-10-31T03:07:53;94861.84;;;8.95;100.00
596;BME280;19946;49.306;11.350;2023-10-31T03:10:54;94848.94;;;8.95;100.00
596;BME280;19946;49.306;11.350;2023-10-31T03:13:54;94854.56;;;8.98;100.00
596;BME280;19946;49.306;11.350;2023-10-31T03:16:57;94852.63;;;8.92;100.00
596;BME280;19946;49.306;11.350;2023-10-31T03:19:58;94840.16;;;8.71;100.00
596;BME280;19946;49.306;11.350;2023-10-31T03:22:58;94844.22;;;8.74;100.00
596;BME280;19946;49.306;11.350;2023-10-31T03:25:58;94857.63;;;8.86;100.00
596;BME280;19946;49.306;11.350;2023-10-31T03:28:58;94871.50;;;8.85;100.00
596;BME280;19946;49.306;11.350;2023-10-31T03:31:59;94855.00;;;8.69;100.00
596;BME280;19946;49.306;11.350;2023-10-31T03:34:59;94867.59;;;8.72;100.00
596;BME280;19946;49.306;11.350;2023-10-31T03:38:00;94865.81;;;8.73;100.00
596;BME280;19946;49.306;11.350;2023-10-31T03:41:00;94874.38;;;8.73;100.00
596;BME280;19946;49.306;11.350;2023-10-31T03:44:01;94870.31;;;8.71;100.00
596;BME280;19946;49.306;11.350;2023-10-31T03:47:01;94877.06;;;8.64;100.00
596;BME280;19946;49.306;11.350;2023-10-31T03:50:02;94888.22;;;8.72;100.00
596;BME280;19946;49.306;11.350;2023-10-31T03:53:03;94886.75;;;8.62;100.00
596;BME280;19946;49.306;11.350;2023-10-31T03:56:03;94897.88;;;8.62;100.00
596;BME280;19946;49.306;11.350;2023-10-31T03:59:04;94868.44;;;8.47;100.00
596;BME280;19946;49.306;11.350;2023-10-31T04:02:04;94887.53;;;8.54;100.00
596;BME280;19946;49.306;11.350;2023-10-31T04:05:05;94895.56;;;8.51;100.00
596;BME280;19946;49.306;11.350;2023-10-31T04:08:06;94885.56;;;8.48;100.00
596;BME280;19946;49.306;11.350;2023-10-31T04:11:06;94893.28;;;8.48;100.00
596;BME280;19946;49.306;11.350;2023-10-31T04:14:06;94888.41;;;8.37;100.00
596;BME280;19946;49.306;11.350;2023-10-31T04:17:07;94908.44;;;8.43;100.00
596;BME280;19946;49.306;11.350;2023-10-31T04:20:07;94892.31;;;8.41;100.00
596;BME280;19946;49.306;11.350;2023-10-31T04:23:08;94909.84;;;8.37;100.00
596;BME280;19946;49.306;11.350;2023-10-31T04:26:08;94897.03;;;8.28;100.00
596;BME280;19946;49.306;11.350;2023-10-31T04:29:08;94925.47;;;8.36;100.00
596;BME280;19946;49.306;11.350;2023-10-31T04:32:09;94916.13;;;8.35;100.00
596;BME280;19946;49.306;11.350;2023-10-31T04:35:09;94921.41;;;8.33;100.00
596;BME280;19946;49.306;11.350;2023-10-31T04:38:09;94921.28;;;8.35;100.00
596;BME280;19946;49.306;11.350;2023-10-31T04:41:10;94888.31;;;7.95;100.00
596;BME280;19946;49.306;11.350;2023-10-31T04:44:10;94903.25;;;8.17;100.00
596;BME280;19946;49.306;11.350;2023-10-31T04:47:10;94931.19;;;8.22;100.00
596;BME280;19946;49.306;11.350;2023-10-31T04:50:11;94905.94;;;8.07;100.00
596;BME280;19946;49.306;11.350;2023-10-31T04:53:11;94924.34;;;8.13;100.00
596;BME280;19946;49.306;11.350;2023-10-31T04:56:13;94930.44;;;8.12;100.00
596;BME280;19946;49.306;11.350;2023-10-31T04:59:15;94933.50;;;8.07;100.00
596;BME280;19946;49.306;11.350;2023-10-31T05:02:16;94909.38;;;7.90;100.00
596;BME280;19946;49.306;11.350;2023-10-31T05:05:16;94920.34;;;7.92;100.00
596;BME280;19946;49.306;11.350;2023-10-31T05:08:16;94928.13;;;8.00;100.00
596;BME280;19946;49.306;11.350;2023-10-31T05:11:17;94923.56;;;7.94;100.00
596;BME280;19946;49.306;11.350;2023-10-31T05:14:18;94884.53;;;7.63;100.00
596;BME280;19946;49.306;11.350;2023-10-31T05:17:18;94928.16;;;7.83;100.00
596;BME280;19946;49.306;11.350;2023-10-31T05:20:18;94947.69;;;7.85;100.00
596;BME280;19946;49.306;11.350;2023-10-31T05:23:20;94944.59;;;7.82;100.00
596;BME280;19946;49.306;11.350;2023-10-31T05:26:20;94959.22;;;7.81;100.00
596;BME280;19946;49.306;11.350;2023-10-31T05:29:21;94941.06;;;7.65;100.00
596;BME280;19946;49.306;11.350;2023-10-31T05:32:21;94945.19;;;7.58;100.00
596;BME280;19946;49.306;11.350;2023-10-31T05:35:22;94949.63;;;7.65;100.00
596;BME280;19946;49.306;11.350;2023-10-31T05:38:22;94972.25;;;7.80;100.00
596;BME280;19946;49.306;11.350;2023-10-31T05:41:23;94956.16;;;7.78;100.00
596;BME280;19946;49.306;11.350;2023-10-31T05:44:23;94963.00;;;7.87;100.00
596;BME280;19946;49.306;11.350;2023-10-31T05:47:23;94971.63;;;7.78;100.00
596;BME280;19946;49.306;11.350;2023-10-31T05:50:23;94960.94;;;7.73;100.00
596;BME280;19946;49.306;11.350;2023-10-31T05:53:24;94962.13;;;7.78;100.00
596;BME280;19946;49.306;11.350;2023-10-31T05:56:24;94975.59;;;7.72;100.00
596;BME280;19946;49.306;11.350;2023-10-31T05:59:24;95001.59;;;7.79;100.00
596;BME280;19946;49.306;11.350;2023-10-31T06:02:25;94988.63;;;7.70;100.00
596;BME280;19946;49.306;11.350;2023-10-31T06:05:25;94971.63;;;7.60;100.00
596;BME280;19946;49.306;11.350;2023-10-31T06:08:26;94991.84;;;7.73;100.00
596;BME280;19946;49.306;11.350;2023-10-31T06:11:29;94964.47;;;7.54;100.00
596;BME280;19946;49.306;11.350;2023-10-31T06:14:29;95002.44;;;7.69;100.00
596;BME280;19946;49.306;11.350;2023-10-31T06:17:30;95012.75;;;7.69;100.00
596;BME280;19946;49.306;11.350;2023-10-31T06:20:33;95012.53;;;7.63;100.00
596;BME280;19946;49.306;11.350;2023-10-31T06:23:39;94996.88;;;7.56;100.00
596;BME280;19946;49.306;11.350;2023-10-31T06:26:39;95031.53;;;7.62;100.00
596;BME280;19946;49.306;11.350;2023-10-31T06:29:40;95032.34;;;7.62;100.00
596;BME280;19946;49.306;11.350;2023-10-31T06:32:40;95047.66;;;7.64;100.00
596;BME280;19946;49.306;11.350;2023-10-31T06:35:40;95047.00;;;7.62;100.00
596;BME280;19946;49.306;11.350;2023-10-31T06:38:41;95061.78;;;7.60;100.00
596;BME280;19946;49.306;11.350;2023-10-31T06:41:41;95047.94;;;7.43;100.00
596;BME280;19946;49.306;11.350;2023-10-31T06:44:41;95048.88;;;7.42;100.00
596;BME280;19946;49.306;11.350;2023-10-31T06:47:42;95079.06;;;7.50;100.00
596;BME280;19946;49.306;11.350;2023-10-31T06:50:42;95085.16;;;7.49;100.00
596;BME280;19946;49.306;11.350;2023-10-31T06:53:42;95094.84;;;7.64;100.00
596;BME280;19946;49.306;11.350;2023-10-31T06:56:43;95100.13;;;7.63;100.00
596;BME280;19946;49.306;11.350;2023-10-31T06:59:43;95111.06;;;7.75;100.00
596;BME280;19946;49.306;11.350;2023-10-31T07:02:43;95095.56;;;7.57;100.00
596;BME280;19946;49.306;11.350;2023-10-31T07:05:44;95126.47;;;7.84;100.00
596;BME280;19946;49.306;11.350;2023-10-31T07:08:44;95117.84;;;7.93;100.00
596;BME280;19946;49.306;11.350;2023-10-31T07:11:44;95129.78;;;7.94;100.00
596;BME280;19946;49.306;11.350;2023-10-31T07:14:45;95093.41;;;7.52;100.00
596;BME280;19946;49.306;11.350;2023-10-31T07:17:45;95142.25;;;7.72;100.00
596;BME280;19946;49.306;11.350;2023-10-31T07:20:45;95139.53;;;7.73;100.00
596;BME280;19946;49.306;11.350;2023-10-31T07:23:46;95146.72;;;7.69;100.00
596;BME280;19946;49.306;11.350;2023-10-31T07:26:46;95144.09;;;7.79;100.00
596;BME280;19946;49.306;11.350;2023-10-31T07:29:46;95150.53;;;7.75;100.00
596;BME280;19946;49.306;11.350;2023-10-31T07:32:47;95123.25;;;7.55;100.00
596;BME280;19946;49.306;11.350;2023-10-31T07:35:47;95147.00;;;7.76;100.00
596;BME280;19946;49.306;11.350;2023-10-31T07:38:47;95153.91;;;7.76;100.00
596;BME280;19946;49.306;11.350;2023-10-31T07:41:48;95144.03;;;7.71;100.00
596;BME280;19946;49.306;11.350;2023-10-31T07:44:48;95131.28;;;7.69;100.00
596;BME280;19946;49.306;11.350;2023-10-31T07:47:49;95127.59;;;7.72;100.00
596;BME280;19946;49.306;11.350;2023-10-31T07:50:50;95152.38;;;7.83;100.00
596;BME280;19946;49.306;11.350;2023-10-31T07:53:50;95137.25;;;7.70;100.00
596;BME280;19946;49.306;11.350;2023-10-31T07:56:50;95145.59;;;7.82;100.00
596;BME280;19946;49.306;11.350;2023-10-31T07:59:51;95146.78;;;7.87;100.00
596;BME280;19946;49.306;11.350;2023-10-31T08:02:51;95135.53;;;7.88;100.00
596;BME280;19946;49.306;11.350;2023-10-31T08:05:51;95138.91;;;7.89;100.00
596;BME280;19946;49.306;11.350;2023-10-31T08:08:52;95087.19;;;7.55;100.00
596;BME280;19946;49.306;11.350;2023-10-31T08:11:52;95147.81;;;7.94;100.00
596;BME280;19946;49.306;11.350;2023-10-31T08:14:53;95145.16;;;7.86;100.00
596;BME280;19946;49.306;11.350;2023-10-31T08:17:53;95128.28;;;7.74;100.00
596;BME280;19946;49.306;11.350;2023-10-31T08:20:53;95148.25;;;7.90;100.00
596;BME280;19946;49.306;11.350;2023-10-31T08:23:54;95149.44;;;7.95;100.00
596;BME280;19946;49.306;11.350;2023-10-31T08:26:54;95169.66;;;8.18;100.00
596;BME280;19946;49.306;11.350;2023-10-31T08:29:55;95162.34;;;8.13;100.00
596;BME280;19946;49.306;11.350;2023-10-31T08:32:55;95161.63;;;8.21;100.00
596;BME280;19946;49.306;11.350;2023-10-31T08:35:55;95120.88;;;7.89;100.00
596;BME280;19946;49.306;11.350;2023-10-31T08:38:56;95166.16;;;8.36;100.00
596;BME280;19946;49.306;11.350;2023-10-31T08:41:57;95160.84;;;8.38;100.00
596;BME280;19946;49.306;11.350;2023-10-31T08:44:57;95163.63;;;8.45;100.00
596;BME280;19946;49.306;11.350;2023-10-31T08:47:58;95160.34;;;8.52;100.00
596;BME280;19946;49.306;11.350;2023-10-31T08:50:58;95163.16;;;8.41;100.00
596;BME280;19946;49.306;11.350;2023-10-31T08:53:58;95174.16;;;8.87;100.00
596;BME280;19946;49.306;11.350;2023-10-31T08:56:59;95172.63;;;9.02;100.00
596;BME280;19946;49.306;11.350;2023-10-31T08:59:59;95162.44;;;9.18;100.00
596;BME280;19946;49.306;11.350;2023-10-31T09:03:00;95160.19;;;9.23;100.00
596;BME280;19946;49.306;11.350;2023-10-31T09:06:00;95149.47;;;9.44;100.00
596;BME280;19946;49.306;11.350;2023-10-31T09:09:01;95154.03;;;9.84;100.00
596;BME280;19946;49.306;11.350;2023-10-31T09:12:01;95148.19;;;9.82;100.00
596;BME280;19946;49.306;11.350;2023-10-31T09:15:01;95152.31;;;9.67;100.00
596;BME280;19946;49.306;11.350;2023-10-31T09:18:02;95154.63;;;9.78;100.00
596;BME280;19946;49.306;11.350;2023-10-31T09:21:02;95170.50;;;9.49;100.00
596;BME280;19946;49.306;11.350;2023-10-31T09:24:03;95167.19;;;10.15;100.00
596;BME280;19946;49.306;11.350;2023-10-31T09:27:03;95167.34;;;10.13;100.00
596;BME280;19946;49.306;11.350;2023-10-31T09:30:04;95175.06;;;9.97;100.00
596;BME280;19946;49.306;11.350;2023-10-31T09:33:04;95177.19;;;10.02;100.00
596;BME280;19946;49.306;11.350;2023-10-31T09:36:05;95161.09;;;9.40;100.00
596;BME280;19946;49.306;11.350;2023-10-31T09:39:05;95175.47;;;9.42;100.00
596;BME280;19946;49.306;11.350;2023-10-31T09:42:06;95196.16;;;9.17;100.00
596;BME280;19946;49.306;11.350;2023-10-31T09:45:08;95199.38;;;8.93;100.00
596;BME280;19946;49.306;11.350;2023-10-31T09:48:08;95191.44;;;8.86;100.00
596;BME280;19946;49.306;11.350;2023-10-31T09:51:09;95203.88;;;8.91;100.00
596;BME280;19946;49.306;11.350;2023-10-31T09:54:11;95209.16;;;8.89;100.00
596;BME280;19946;49.306;11.350;2023-10-31T09:57:16;95208.59;;;8.95;100.00
596;BME280;19946;49.306;11.350;2023-10-31T10:00:18;95226.84;;;8.76;100.00
596;BME280;19946;49.306;11.350;2023-10-31T10:03:18;95199.56;;;8.11;100.00
596;BME280;19946;49.306;11.350;2023-10-31T10:06:20;95254.06;;;8.16;100.00
596;BME280;19946;49.306;11.350;2023-10-31T10:09:21;95207.22;;;7.75;100.00
596;BME280;19946;49.306;11.350;2023-10-31T10:12:22;95252.47;;;8.42;100.00
596;BME280;19946;49.306;11.350;2023-10-31T10:15:22;95222.81;;;8.46;100.00
596;BME280;19946;49.306;11.350;2023-10-31T10:18:30;95253.19;;;8.88;100.00
596;BME280;19946;49.306;11.350;2023-10-31T10:21:46;95270.91;;;8.83;100.00
596;BME280;19946;49.306;11.350;2023-10-31T10:24:46;95274.31;;;9.01;100.00
596;BME280;19946;49.306;11.350;2023-10-31T10:27:47;95280.44;;;9.18;100.00
596;BME280;19946;49.306;11.350;2023-10-31T10:30:48;95286.84;;;8.78;100.00
596;BME280;19946;49.306;11.350;2023-10-31T10:33:48;95238.09;;;8.57;100.00
596;BME280;19946;49.306;11.350;2023-10-31T10:36:49;95267.81;;;8.79;100.00
596;BME280;19946;49.306;11.350;2023-10-31T10:39:51;95267.00;;;8.78;100.00
596;BME280;19946;49.306;11.350;2023-10-31T10:42:58;95263.88;;;9.10;100.00
596;BME280;19946;49.306;11.350;2023-10-31T10:46:00;95255.06;;;8.95;100.00
596;BME280;19946;49.306;11.350;2023-10-31T10:49:04;95253.50;;;9.02;100.00
596;BME280;19946;49.306;11.350;2023-10-31T10:52:28;95247.16;;;9.40;100.00
596;BME280;19946;49.306;11.350;2023-10-31T10:55:29;95251.91;;;9.53;100.00
596;BME280;19946;49.306;11.350;2023-10-31T10:58:46;95258.84;;;9.27;100.00
596;BME280;19946;49.306;11.350;2023-10-31T11:01:50;95257.09;;;9.27;100.00
596;BME280;19946;49.306;11.350;2023-10-31T11:04:52;95274.97;;;9.03;100.00
596;BME280;19946;49.306;11.350;2023-10-31T11:07:52;95271.50;;;9.12;100.00
596;BME280;19946;49.306;11.350;2023-10-31T11:10:53;95274.97;;;9.03;100.00
596;BME280;19946;49.306;11.350;2023-10-31T11:13:56;95279.28;;;9.20;100.00
596;BME280;19946;49.306;11.350;2023-10-31T11:17:00;95215.28;;;8.88;100.00
596;BME280;19946;49.306;11.350;2023-10-31T11:20:03;95257.91;;;9.10;100.00
596;BME280;19946;49.306;11.350;2023-10-31T11:23:04;95277.13;;;9.51;100.00
596;BME280;19946;49.306;11.350;2023-10-31T11:26:07;95269.41;;;9.59;100.00
596;BME280;19946;49.306;11.350;2023-10-31T11:29:10;95264.09;;;9.61;100.00
596;BME280;19946;49.306;11.350;2023-10-31T11:32:10;95265.13;;;9.24;100.00
596;BME280;19946;49.306;11.350;2023-10-31T11:35:12;95260.47;;;9.53;100.00
596;BME280;19946;49.306;11.350;2023-10-31T11:38:12;95268.66;;;9.23;100.00
596;BME280;19946;49.306;11.350;2023-10-31T11:41:12;95271.97;;;9.33;100.00
596;BME280;19946;49.306;11.350;2023-10-31T11:44:14;95274.34;;;9.52;100.00
596;BME280;19946;49.306;11.350;2023-10-31T11:47:15;95231.06;;;9.03;100.00
596;BME280;19946;49.306;11.350;2023-10-31T11:50:16;95264.41;;;8.78;100.00
596;BME280;19946;49.306;11.350;2023-10-31T11:53:17;95290.75;;;9.18;100.00
596;BME280;19946;49.306;11.350;2023-10-31T11:56:20;95292.81;;;9.14;100.00
596;BME280;19946;49.306;11.350;2023-10-31T11:59:21;95293.91;;;9.11;100.00
596;BME280;19946;49.306;11.350;2023-10-31T12:02:21;95266.19;;;9.13;100.00
596;BME280;19946;49.306;11.350;2023-10-31T12:05:22;95307.06;;;9.18;100.00
596;BME280;19946;49.306;11.350;2023-10-31T12:08:30;95275.78;;;8.68;100.00
596;BME280;19946;49.306;11.350;2023-10-31T12:11:30;95278.72;;;8.55;100.00
596;BME280;19946;49.306;11.350;2023-10-31T12:14:30;95304.41;;;8.74;100.00
596;BME280;19946;49.306;11.350;2023-10-31T12:17:31;95303.25;;;8.87;100.00
596;BME280;19946;49.306;11.350;2023-10-31T12:20:31;95299.53;;;9.07;100.00
596;BME280;19946;49.306;11.350;2023-10-31T12:23:32;95281.28;;;9.26;100.00
596;BME280;19946;49.306;11.350;2023-10-31T12:26:34;95294.34;;;9.25;100.00
596;BME280;19946;49.306;11.350;2023-10-31T12:29:34;95292.66;;;9.15;100.00
596;BME280;19946;49.306;11.350;2023-10-31T12:32:35;95272.59;;;9.27;100.00
596;BME280;19946;49.306;11.350;2023-10-31T12:35:35;95279.75;;;9.15;100.00
596;BME280;19946;49.306;11.350;2023-10-31T12:38:36;95265.44;;;9.03;100.00
596;BME280;19946;49.306;11.350;2023-10-31T12:41:37;95269.47;;;9.24;100.00
596;BME280;19946;49.306;11.350;2023-10-31T12:44:37;95264.25;;;9.15;100.00
596;BME280;19946;49.306;11.350;2023-10-31T12:47:38;95262.91;;;9.55;100.00
596;BME280;19946;49.306;11.350;2023-10-31T12:50:39;95275.13;;;9.71;100.00
596;BME280;19946;49.306;11.350;2023-10-31T12:53:40;95261.63;;;9.85;100.00
596;BME280;19946;49.306;11.350;2023-10-31T12:56:41;95270.81;;;10.13;100.00
596;BME280;19946;49.306;11.350;2023-10-31T12:59:42;95278.19;;;10.00;100.00
596;BME280;19946;49.306;11.350;2023-10-31T13:02:42;95282.03;;;9.96;100.00
596;BME280;19946;49.306;11.350;2023-10-31T13:05:43;95275.97;;;10.05;100.00
596;BME280;19946;49.306;11.350;2023-10-31T13:12:47;95283.72;;;10.05;100.00
596;BME280;19946;49.306;11.350;2023-10-31T13:15:47;95290.66;;;10.05;100.00
596;BME280;19946;49.306;11.350;2023-10-31T13:18:47;95253.38;;;9.81;100.00
596;BME280;19946;49.306;11.350;2023-10-31T13:21:49;95285.25;;;9.90;100.00
596;BME280;19946;49.306;11.350;2023-10-31T13:24:50;95301.50;;;10.08;100.00
596;BME280;19946;49.306;11.350;2023-10-31T13:27:50;95303.47;;;9.80;100.00
596;BME280;19946;49.306;11.350;2023-10-31T13:30:53;95315.91;;;10.11;100.00
596;BME280;19946;49.306;11.350;2023-10-31T13:33:53;95284.97;;;10.01;100.00
596;BME280;19946;49.306;11.350;2023-10-31T13:36:54;95320.06;;;10.30;100.00
596;BME280;19946;49.306;11.350;2023-10-31T13:39:54;95280.91;;;10.24;100.00
596;BME280;19946;49.306;11.350;2023-10-31T13:42:54;95330.91;;;10.33;100.00
596;BME280;19946;49.306;11.350;2023-10-31T13:45:55;95341.66;;;10.46;100.00
596;BME280;19946;49.306;11.350;2023-10-31T13:48:55;95296.16;;;10.02;100.00
596;BME280;19946;49.306;11.350;2023-10-31T13:51:56;95306.38;;;10.11;100.00
596;BME280;19946;49.306;11.350;2023-10-31T13:54:56;95358.56;;;10.33;100.00
596;BME280;19946;49.306;11.350;2023-10-31T13:57:56;95370.28;;;10.45;100.00
596;BME280;19946;49.306;11.350;2023-10-31T14:00:57;95361.56;;;10.20;100.00
596;BME280;19946;49.306;11.350;2023-10-31T14:03:57;95363.91;;;10.31;100.00
596;BME280;19946;49.306;11.350;2023-10-31T14:06:57;95342.13;;;10.16;100.00
596;BME280;19946;49.306;11.350;2023-10-31T14:09:58;95362.88;;;9.98;100.00
596;BME280;19946;49.306;11.350;2023-10-31T14:12:59;95284.91;;;9.59;100.00
596;BME280;19946;49.306;11.350;2023-10-31T14:15:59;95340.75;;;9.78;100.00
596;BME280;19946;49.306;11.350;2023-10-31T14:19:00;95377.78;;;10.04;100.00
596;BME280;19946;49.306;11.350;2023-10-31T14:22:02;95341.31;;;9.64;100.00
596;BME280;19946;49.306;11.350;2023-10-31T14:25:03;95401.72;;;10.24;100.00
596;BME280;19946;49.306;11.350;2023-10-31T14:28:05;95395.53;;;9.99;100.00
596;BME280;19946;49.306;11.350;2023-10-31T14:31:06;95331.28;;;9.61;100.00
596;BME280;19946;49.306;11.350;2023-10-31T14:34:06;95409.13;;;10.01;100.00
596;BME280;19946;49.306;11.350;2023-10-31T14:37:06;95368.03;;;9.98;100.00
596;BME280;19946;49.306;11.350;2023-10-31T14:40:07;95414.50;;;10.08;100.00
596;BME280;19946;49.306;11.350;2023-10-31T14:43:08;95417.56;;;10.03;100.00
596;BME280;19946;49.306;11.350;2023-10-31T14:46:08;95382.91;;;9.96;100.00
596;BME280;19946;49.306;11.350;2023-10-31T14:49:09;95398.88;;;10.17;100.00
596;BME280;19946;49.306;11.350;2023-10-31T14:52:10;95427.00;;;10.12;100.00
596;BME280;19946;49.306;11.350;2023-10-31T14:55:10;95436.19;;;10.33;100.00
596;BME280;19946;49.306;11.350;2023-10-31T14:58:11;95414.13;;;10.20;100.00
596;BME280;19946;49.306;11.350;2023-10-31T15:01:11;95432.09;;;10.04;100.00
596;BME280;19946;49.306;11.350;2023-10-31T15:04:11;95441.31;;;10.07;100.00
596;BME280;19946;49.306;11.350;2023-10-31T15:07:13;95428.47;;;9.97;100.00
596;BME280;19946;49.306;11.350;2023-10-31T15:10:13;95451.19;;;10.03;100.00
596;BME280;19946;49.306;11.350;2023-10-31T15:13:13;95434.78;;;9.95;100.00
596;BME280;19946;49.306;11.350;2023-10-31T15:16:14;95452.13;;;10.02;100.00
596;BME280;19946;49.306;11.350;2023-10-31T15:19:14;95437.09;;;9.80;100.00
596;BME280;19946;49.306;11.350;2023-10-31T15:22:14;95453.19;;;9.92;100.00
596;BME280;19946;49.306;11.350;2023-10-31T15:25:14;95459.53;;;9.97;100.00
596;BME280;19946;49.306;11.350;2023-10-31T15:28:15;95464.19;;;9.76;100.00
596;BME280;19946;49.306;11.350;2023-10-31T15:31:15;95475.06;;;9.62;100.00
596;BME280;19946;49.306;11.350;2023-10-31T15:34:16;95439.09;;;9.33;100.00
596;BME280;19946;49.306;11.350;2023-10-31T15:37:16;95478.38;;;9.54;100.00
596;BME280;19946;49.306;11.350;2023-10-31T15:40:16;95479.53;;;9.42;100.00
596;BME280;19946;49.306;11.350;2023-10-31T15:43:17;95452.41;;;9.10;100.00
596;BME280;19946;49.306;11.350;2023-10-31T15:46:17;95491.22;;;9.28;100.00
596;BME280;19946;49.306;11.350;2023-10-31T15:49:17;95486.03;;;9.28;100.00
596;BME280;19946;49.306;11.350;2023-10-31T15:52:18;95493.53;;;9.22;100.00
596;BME280;19946;49.306;11.350;2023-10-31T15:55:19;95482.78;;;8.99;100.00
596;BME280;19946;49.306;11.350;2023-10-31T15:58:19;95505.75;;;9.02;100.00
596;BME280;19946;49.306;11.350;2023-10-31T16:01:19;95486.72;;;8.75;100.00
596;BME280;19946;49.306;11.350;2023-10-31T16:04:20;95466.56;;;8.52;100.00
596;BME280;19946;49.306;11.350;2023-10-31T16:07:23;95511.06;;;8.63;100.00
596;BME280;19946;49.306;11.350;2023-10-31T16:10:23;95515.28;;;8.64;100.00